Time;durP1;ratioP1;P1;durP2;ratioP2;P2;SDS_P1;SDS_P2;PMS_P1;PMS_P2;Temp;Humidity;BMP_temperature;BMP_pressure;BME280_temperature;BME280_humidity;BME280_pressure;Samples;Min_cycle;Max_cycle;Signal;HPM_P1;HPM_P2
2022/08/07 00:01:09;;;;;;;10.18;4.90;;;;;;;14.80;80.67;102869.97;4965094;28;20054;-64
2022/08/07 00:03:34;;;;;;;5.85;4.28;;;;;;;14.70;80.92;102858.63;4964856;28;20070;-63
2022/08/07 00:06:00;;;;;;;7.30;4.40;;;;;;;14.64;80.93;102864.94;4964533;28;20537;-63
2022/08/07 00:08:26;;;;;;;8.52;4.80;;;;;;;14.56;81.34;102856.22;4964202;28;20046;-62
2022/08/07 00:10:51;;;;;;;8.90;4.38;;;;;;;14.50;81.62;102853.69;4964533;28;20058;-63
2022/08/07 00:13:19;;;;;;;5.72;4.35;;;;;;;14.49;81.96;102849.28;4968781;28;20023;-63
2022/08/07 00:15:44;;;;;;;8.68;4.93;;;;;;;14.47;82.34;102846.66;4968073;28;20378;-63
2022/08/07 00:18:10;;;;;;;7.00;5.30;;;;;;;14.47;82.41;102851.09;4968516;28;20029;-63
2022/08/07 00:20:37;;;;;;;4.97;4.32;;;;;;;14.49;82.78;102841.34;4966540;28;20034;-63
2022/08/07 00:23:05;;;;;;;7.43;5.55;;;;;;;14.46;83.15;102844.03;4968635;28;20429;-63
2022/08/07 00:25:30;;;;;;;7.15;5.43;;;;;;;14.50;83.05;102843.06;4967221;28;20383;-64
2022/08/07 00:27:56;;;;;;;5.80;5.00;;;;;;;14.48;83.23;102847.56;4968587;28;20034;-64
2022/08/07 00:30:21;;;;;;;7.53;5.00;;;;;;;14.42;83.34;102832.59;4967298;28;20050;-64
2022/08/07 00:32:48;;;;;;;7.28;5.00;;;;;;;14.39;83.52;102838.00;4968731;28;20030;-63
2022/08/07 00:35:13;;;;;;;12.70;6.07;;;;;;;14.36;83.85;102833.59;4966904;28;20030;-63
2022/08/07 00:37:38;;;;;;;7.10;5.55;;;;;;;14.32;83.79;102837.22;4968555;28;20030;-63
2022/08/07 00:40:04;;;;;;;7.65;5.20;;;;;;;14.35;84.19;102834.50;4968292;28;20031;-63
2022/08/07 00:42:32;;;;;;;6.18;5.18;;;;;;;14.39;84.17;102835.34;4967800;28;20041;-64
2022/08/07 00:44:57;;;;;;;8.50;5.10;;;;;;;14.40;83.84;102829.13;4967885;28;20030;-64
2022/08/07 00:47:23;;;;;;;5.82;5.18;;;;;;;14.39;83.95;102830.88;4967357;28;20031;-63
2022/08/07 00:49:48;;;;;;;8.60;5.47;;;;;;;14.38;83.90;102830.91;4967089;28;20038;-64
2022/08/07 00:52:13;;;;;;;5.78;5.18;;;;;;;14.34;83.58;102827.47;4966710;28;20114;-63
2022/08/07 00:54:39;;;;;;;8.05;4.93;;;;;;;14.32;83.80;102826.59;4967155;28;20129;-64
2022/08/07 00:57:05;;;;;;;9.13;5.30;;;;;;;14.32;83.61;102831.91;4951298;28;20088;-63
2022/08/07 00:59:31;;;;;;;5.88;4.30;;;;;;;14.34;83.58;102824.81;4949514;28;20026;-64
2022/08/07 01:01:57;;;;;;;7.78;4.60;;;;;;;14.34;83.74;102819.50;4967294;28;20038;-63
2022/08/07 01:04:22;;;;;;;9.30;5.25;;;;;;;14.32;83.51;102826.59;4950536;28;20446;-61
2022/08/07 01:06:47;;;;;;;6.40;5.80;;;;;;;14.33;83.42;102822.19;4966325;28;20023;-63
2022/08/07 01:09:13;;;;;;;7.13;5.82;;;;;;;14.28;83.78;102823.16;4965562;28;20171;-63
2022/08/07 01:11:39;;;;;;;8.50;6.35;;;;;;;14.25;83.72;102825.84;4958731;23;20198;-65
2022/08/07 01:14:06;;;;;;;7.85;6.43;;;;;;;14.22;83.95;102819.72;4949374;28;20117;-63
2022/08/07 01:16:32;;;;;;;7.20;6.38;;;;;;;14.17;84.08;102821.59;4966971;28;20014;-62
2022/08/07 01:18:57;;;;;;;9.70;7.25;;;;;;;14.12;84.39;102824.31;4978743;28;20056;-63
2022/08/07 01:21:24;;;;;;;9.65;7.38;;;;;;;14.10;84.49;102826.09;4986370;28;20113;-62
2022/08/07 01:23:50;;;;;;;10.38;7.25;;;;;;;14.09;84.61;102819.91;4968540;28;20034;-64
2022/08/07 01:26:19;;;;;;;7.93;6.60;;;;;;;14.04;84.86;102811.19;4968679;28;20026;-62
2022/08/07 01:28:47;;;;;;;13.20;7.57;;;;;;;14.01;85.15;102813.88;4986968;28;20019;-64
2022/08/07 01:31:12;;;;;;;10.38;7.45;;;;;;;14.02;85.15;102811.22;4968233;28;20097;-63
2022/08/07 01:33:38;;;;;;;10.23;7.25;;;;;;;13.99;85.28;102813.03;4930816;29;20142;-64
2022/08/07 01:36:03;;;;;;;13.13;7.78;;;;;;;13.96;85.16;102811.31;4946140;29;20434;-66
2022/08/07 01:38:29;;;;;;;10.63;7.68;;;;;;;13.97;85.34;102813.03;4949642;28;20118;-63
2022/08/07 01:40:57;;;;;;;9.23;7.10;;;;;;;13.96;85.38;102813.06;4969591;28;20050;-64
2022/08/07 01:43:23;;;;;;;10.38;7.55;;;;;;;13.95;85.46;102811.34;4968101;28;20101;-62
2022/08/07 01:45:49;;;;;;;10.77;6.75;;;;;;;13.95;85.49;102816.63;4985995;28;20460;-64
2022/08/07 01:48:15;;;;;;;10.05;7.60;;;;;;;13.95;85.82;102817.53;4986733;28;20076;-63
2022/08/07 01:50:41;;;;;;;12.98;7.30;;;;;;;13.94;85.73;102818.41;4967322;28;20026;-63
2022/08/07 01:53:06;;;;;;;10.45;7.10;;;;;;;13.97;85.78;102812.19;4978931;28;20437;-64
2022/08/07 01:55:38;;;;;;;11.52;7.35;;;;;;;13.99;85.62;102813.03;4949560;28;20122;-65
2022/08/07 01:58:07;;;;;;;9.75;8.00;;;;;;;14.00;85.78;102809.50;4949457;28;20528;-64
2022/08/07 02:00:34;;;;;;;11.32;7.13;;;;;;;14.01;85.40;102812.13;4933510;28;20049;-62
2022/08/07 02:03:02;;;;;;;8.38;6.65;;;;;;;13.97;85.50;102806.91;4949907;28;20720;-63
2022/08/07 02:05:33;;;;;;;10.43;6.45;;;;;;;13.95;85.52;102806.03;4957444;28;20037;-63
2022/08/07 02:08:03;;;;;;;8.90;7.00;;;;;;;13.91;85.41;102810.53;4969401;28;20333;-63
2022/08/07 02:10:29;;;;;;;11.80;7.20;;;;;;;13.87;85.31;102804.38;4967306;28;20642;-63
2022/08/07 02:12:57;;;;;;;11.50;7.78;;;;;;;13.86;85.58;102807.94;4986340;28;20615;-63
2022/08/07 02:15:24;;;;;;;11.85;7.57;;;;;;;13.86;85.51;102794.69;4960188;28;20105;-63
2022/08/07 02:17:50;;;;;;;11.88;7.97;;;;;;;13.85;85.80;102800.88;4966939;28;20033;-64
2022/08/07 02:20:17;;;;;;;11.63;8.43;;;;;;;13.87;85.71;102795.56;4952603;28;20045;-63
2022/08/07 02:22:43;;;;;;;11.82;7.93;;;;;;;13.86;85.97;102791.16;4986430;28;20034;-63
2022/08/07 02:25:09;;;;;;;9.40;8.40;;;;;;;13.84;86.13;102787.66;4984497;28;20038;-62
2022/08/07 02:27:35;;;;;;;9.98;8.07;;;;;;;13.80;85.88;102792.13;4986439;28;20049;-65
2022/08/07 02:30:03;;;;;;;14.57;9.18;;;;;;;13.78;86.12;102793.94;4967220;28;20513;-62
2022/08/07 02:32:28;;;;;;;11.57;9.02;;;;;;;13.74;86.25;102785.19;4985527;28;20026;-63
2022/08/07 02:34:56;;;;;;;13.35;9.98;;;;;;;13.74;86.51;102787.81;4967721;28;20429;-63
2022/08/07 02:37:22;;;;;;;11.13;8.40;;;;;;;13.76;86.46;102785.16;4947536;28;20150;-63
2022/08/07 02:39:48;;;;;;;13.30;10.65;;;;;;;13.75;86.79;102778.06;4948644;28;20019;-64
2022/08/07 02:42:13;;;;;;;10.32;9.23;;;;;;;13.78;86.69;102778.03;4967323;28;20669;-64
2022/08/07 02:44:40;;;;;;;12.80;9.65;;;;;;;13.76;86.78;102790.44;4968416;28;20030;-63
2022/08/07 02:47:07;;;;;;;11.20;10.02;;;;;;;13.73;86.58;102780.75;4979326;28;20049;-62
2022/08/07 02:49:32;;;;;;;11.35;9.00;;;;;;;13.70;86.88;102782.59;4949248;28;20527;-62
2022/08/07 02:51:58;;;;;;;11.38;9.63;;;;;;;13.66;86.92;102783.56;4947117;28;20540;-63
2022/08/07 02:54:26;;;;;;;13.73;8.98;;;;;;;13.62;86.75;102794.19;4947571;28;20433;-64
2022/08/07 02:56:52;;;;;;;12.13;8.68;;;;;;;13.62;87.06;102790.66;4948019;28;20035;-63
2022/08/07 02:59:20;;;;;;;13.52;9.73;;;;;;;13.60;86.98;102792.44;4948735;28;20019;-63
2022/08/07 03:01:45;;;;;;;13.82;10.82;;;;;;;13.63;86.91;102787.09;4949723;28;20042;-64
2022/08/07 03:04:14;;;;;;;13.18;9.50;;;;;;;13.64;86.97;102788.88;4985099;28;20027;-64
2022/08/07 03:06:42;;;;;;;12.38;9.60;;;;;;;13.61;87.28;102786.28;4966330;28;20037;-62
2022/08/07 03:09:08;;;;;;;11.15;9.55;;;;;;;13.58;87.00;102781.00;4967980;28;20029;-63
2022/08/07 03:11:36;;;;;;;11.57;9.25;;;;;;;13.54;87.04;102781.97;4983986;28;20026;-63
2022/08/07 03:14:02;;;;;;;12.45;9.18;;;;;;;13.53;87.15;102783.72;4968128;28;20472;-64
2022/08/07 03:16:29;;;;;;;12.80;9.52;;;;;;;13.52;87.29;102782.84;4984538;28;20037;-63
2022/08/07 03:18:55;;;;;;;10.93;9.73;;;;;;;13.52;87.77;102782.84;4967281;28;20457;-63
2022/08/07 03:21:21;;;;;;;10.02;8.98;;;;;;;13.51;87.39;102785.50;4984018;28;20116;-63
2022/08/07 03:23:48;;;;;;;12.23;9.13;;;;;;;13.51;87.20;102785.50;4951034;28;20110;-64
2022/08/07 03:26:17;;;;;;;14.77;9.55;;;;;;;13.46;87.12;102779.41;4984813;28;20030;-64
2022/08/07 03:28:43;;;;;;;;;;;;;;;13.46;87.19;102779.41;4967316;28;20022;-62
2022/08/07 03:31:18;;;;;;;13.38;8.90;;;;;;;13.43;87.01;102782.09;4967853;28;20008;-64
2022/08/07 03:33:45;;;;;;;10.15;8.07;;;;;;;13.42;87.23;102772.41;4967901;28;20030;-63
2022/08/07 03:36:13;;;;;;;12.73;9.00;;;;;;;13.38;87.52;102774.22;4967356;28;20505;-63
2022/08/07 03:38:39;;;;;;;13.25;9.77;;;;;;;13.36;87.60;102778.63;4966871;28;20022;-64
2022/08/07 03:41:04;;;;;;;12.60;9.68;;;;;;;13.33;87.61;102776.91;4985058;28;20527;-63
2022/08/07 03:43:30;;;;;;;12.75;9.27;;;;;;;13.33;87.69;102773.41;4966111;28;20022;-64
2022/08/07 03:45:55;;;;;;;13.35;9.32;;;;;;;13.28;87.65;102762.88;4985189;28;20038;-64
2022/08/07 03:48:21;;;;;;;11.23;9.32;;;;;;;13.27;87.86;102774.34;4969842;28;20058;-64
2022/08/07 03:50:47;;;;;;;11.57;9.77;;;;;;;13.24;88.16;102771.75;4971333;28;20030;-63
2022/08/07 03:53:13;;;;;;;11.13;8.68;;;;;;;13.24;88.18;102777.03;4961038;28;20023;-63
2022/08/07 03:55:39;;;;;;;10.13;9.07;;;;;;;13.23;88.20;102770.88;4969507;28;20046;-63
2022/08/07 03:58:04;;;;;;;11.32;9.88;;;;;;;13.24;88.58;102771.75;4953004;28;20023;-64
2022/08/07 04:00:30;;;;;;;13.63;10.35;;;;;;;13.24;88.50;102769.09;4968970;28;20031;-63
2022/08/07 04:02:55;;;;;;;12.05;10.05;;;;;;;13.25;88.72;102766.44;4951093;28;20089;-63
2022/08/07 04:05:21;;;;;;;13.60;11.02;;;;;;;13.26;88.58;102769.97;4988076;28;20031;-63
2022/08/07 04:07:46;;;;;;;16.13;10.80;;;;;;;13.21;88.62;102779.72;4987813;28;20393;-64
2022/08/07 04:10:12;;;;;;;11.25;9.75;;;;;;;13.20;88.54;102767.41;4952065;28;20059;-65
2022/08/07 04:12:38;;;;;;;15.13;10.18;;;;;;;13.23;88.74;102772.66;4950463;28;20050;-62
2022/08/07 04:15:04;;;;;;;14.23;11.52;;;;;;;13.22;88.80;102770.91;4968856;28;20489;-63
2022/08/07 04:17:29;;;;;;;11.95;10.38;;;;;;;13.26;88.90;102772.63;4966732;28;20107;-63
2022/08/07 04:19:54;;;;;;;12.82;10.30;;;;;;;13.26;88.85;102770.84;4963646;28;20098;-64
2022/08/07 04:22:24;;;;;;;17.63;10.15;;;;;;;13.29;89.04;102774.34;4970377;28;20030;-64
2022/08/07 04:24:49;;;;;;;;;;;;;;;13.31;88.95;102773.44;4969884;28;20073;-63
2022/08/07 04:27:15;;;;;;;12.27;10.13;;;;;;;13.35;88.61;102775.13;4987758;28;19945;-64
2022/08/07 04:29:42;;;;;;;14.52;10.93;;;;;;;13.35;88.86;102775.13;4955530;28;20038;-64
2022/08/07 04:32:08;;;;;;;15.23;10.18;;;;;;;13.33;88.88;102770.75;4968229;28;20023;-64
2022/08/07 04:34:34;;;;;;;14.50;10.27;;;;;;;13.34;88.77;102772.50;4974469;28;20045;-63
2022/08/07 04:37:00;;;;;;;13.75;10.45;;;;;;;13.39;88.53;102774.19;4969962;28;20437;-65
2022/08/07 04:39:25;;;;;;;14.23;9.95;;;;;;;13.42;89.01;102775.06;4981420;28;20105;-61
2022/08/07 04:41:50;;;;;;;13.00;10.52;;;;;;;13.46;89.15;102774.94;4968186;28;20054;-65
2022/08/07 04:44:16;;;;;;;15.30;10.65;;;;;;;13.49;89.16;102779.34;4969631;28;20033;-64
2022/08/07 04:46:46;;;;;;;15.40;11.13;;;;;;;13.49;88.99;102782.00;4970366;28;20681;-65
2022/08/07 04:49:23;;;;;;;17.30;11.23;;;;;;;13.49;89.19;102787.28;4966936;28;20102;-65
2022/08/07 04:52:04;;;;;;;14.30;10.13;;;;;;;13.52;89.30;102782.84;4968096;28;20031;-64
2022/08/07 04:54:37;;;;;;;12.27;10.25;;;;;;;13.54;89.09;102781.97;4966785;28;20481;-65
2022/08/07 04:57:24;;;;;;;11.35;9.77;;;;;;;13.59;89.10;102793.34;4950717;28;20650;-65
2022/08/07 04:59:56;;;;;;;11.95;9.55;;;;;;;13.66;89.05;102795.00;4949065;28;20085;-64
2022/08/07 05:02:31;;;;;;;10.95;9.63;;;;;;;13.73;88.91;102798.44;4965438;28;20161;-63
2022/08/07 05:05:06;;;;;;;12.50;10.38;;;;;;;13.77;88.86;102800.13;4966005;28;20202;-63
2022/08/07 05:07:46;;;;;;;12.07;10.10;;;;;;;13.85;88.41;102808.81;4949314;28;20121;-63
2022/08/07 05:10:15;;;;;;;12.63;9.55;;;;;;;13.92;88.12;102798.13;4949284;28;20018;-65
2022/08/07 05:12:51;;;;;;;11.82;9.35;;;;;;;13.99;87.92;102803.31;4949828;28;20079;-66
2022/08/07 05:15:31;;;;;;;17.42;9.02;;;;;;;14.06;87.49;102793.47;4964420;28;20124;-65
2022/08/07 05:18:05;;;;;;;13.13;10.15;;;;;;;14.11;87.30;102799.56;4986442;28;20534;-65
2022/08/07 05:20:42;;;;;;;13.52;9.95;;;;;;;14.19;87.14;102798.56;4952367;28;20054;-64
2022/08/07 05:23:10;;;;;;;14.15;9.07;;;;;;;14.26;86.60;102800.19;4947916;28;20527;-65
2022/08/07 05:25:36;;;;;;;16.35;8.98;;;;;;;14.31;86.42;102798.34;4950709;28;20100;-64
2022/08/07 05:28:02;;;;;;;9.82;8.63;;;;;;;14.38;86.16;102794.66;4968886;28;20019;-65
2022/08/07 05:30:28;;;;;;;9.35;8.30;;;;;;;14.50;85.71;102792.69;4975458;28;20243;-64
2022/08/07 05:32:54;;;;;;;11.95;9.35;;;;;;;14.53;85.97;102792.63;4952789;28;20051;-64
2022/08/07 05:35:20;;;;;;;12.52;9.45;;;;;;;14.60;86.12;102791.59;4980069;28;20022;-64
2022/08/07 05:37:46;;;;;;;16.55;10.13;;;;;;;14.64;86.39;102795.97;4983310;28;20100;-64
2022/08/07 05:40:12;;;;;;;9.48;8.48;;;;;;;14.77;86.19;102798.34;4979462;28;20385;-64
2022/08/07 05:42:37;;;;;;;10.25;8.20;;;;;;;14.88;86.00;102795.50;4959760;28;20121;-63
2022/08/07 05:45:04;;;;;;;9.82;7.97;;;;;;;15.04;85.61;102804.03;4985882;28;20043;-65
2022/08/07 05:47:31;;;;;;;10.80;7.80;;;;;;;15.15;85.21;102806.44;4979321;28;20068;-66
2022/08/07 05:49:57;;;;;;;11.02;8.43;;;;;;;15.29;84.94;102814.97;4961299;28;20026;-65
2022/08/07 05:52:22;;;;;;;11.02;7.43;;;;;;;15.41;84.55;102808.50;4960164;28;20085;-63
2022/08/07 05:54:47;;;;;;;9.05;7.63;;;;;;;15.50;83.99;102804.78;4981540;28;20034;-65
2022/08/07 05:57:14;;;;;;;11.77;8.38;;;;;;;15.60;83.66;102801.91;4977369;28;20035;-64
2022/08/07 05:59:41;;;;;;;10.90;8.65;;;;;;;15.69;83.31;102800.81;4957877;28;20022;-64
2022/08/07 06:02:07;;;;;;;9.30;8.30;;;;;;;15.74;82.92;102801.59;4982447;28;20026;-64
2022/08/07 06:04:36;;;;;;;8.73;6.80;;;;;;;15.84;82.60;102799.56;4984692;28;20034;-63
2022/08/07 06:07:04;;;;;;;10.10;7.90;;;;;;;15.93;82.40;102799.34;4984424;28;20105;-63
2022/08/07 06:09:30;;;;;;;10.60;7.65;;;;;;;16.04;82.19;102804.38;4957174;28;20524;-64
2022/08/07 06:11:56;;;;;;;8.60;6.90;;;;;;;16.20;81.95;102802.22;4963239;28;20053;-64
2022/08/07 06:14:22;;;;;;;8.20;7.20;;;;;;;16.36;81.50;102802.69;4958469;28;20030;-62
2022/08/07 06:16:48;;;;;;;8.63;6.95;;;;;;;16.49;81.31;102802.31;4964138;28;20578;-64
2022/08/07 06:19:13;;;;;;;8.15;7.18;;;;;;;16.60;80.86;102797.59;4978471;28;20029;-64
2022/08/07 06:21:40;;;;;;;11.00;7.70;;;;;;;16.73;80.59;102805.22;4965436;28;20086;-65
2022/08/07 06:24:06;;;;;;;7.40;5.90;;;;;;;16.86;80.09;102809.25;4964754;28;20117;-64
2022/08/07 06:26:31;;;;;;;6.70;4.85;;;;;;;17.03;79.58;102813.22;4964376;28;20505;-64
2022/08/07 06:28:58;;;;;;;6.13;4.50;;;;;;;17.18;78.82;102812.81;4964905;28;20236;-63
2022/08/07 06:31:24;;;;;;;8.73;5.47;;;;;;;17.29;77.64;102815.16;4977094;28;20110;-64
2022/08/07 06:33:49;;;;;;;5.00;4.40;;;;;;;17.46;77.00;102811.06;4972482;28;20078;-64
2022/08/07 06:36:15;;;;;;;8.10;4.57;;;;;;;17.63;75.85;102813.19;4977379;28;20042;-65
2022/08/07 06:38:41;;;;;;;5.15;4.63;;;;;;;17.72;75.62;102816.47;4980190;28;20023;-64
2022/08/07 06:41:29;;;;;;;6.82;5.00;;;;;;;17.76;74.57;102812.81;4980901;28;20030;-64
2022/08/07 06:43:55;;;;;;;6.57;5.07;;;;;;;17.85;73.96;102808.94;4948320;28;20049;-64
2022/08/07 06:46:21;;;;;;;5.53;4.82;;;;;;;17.96;72.90;102806.78;4948228;28;20058;-64
2022/08/07 06:48:46;;;;;;;5.07;4.57;;;;;;;17.99;72.88;102814.69;4945400;28;20061;-65
2022/08/07 06:51:19;;;;;;;7.55;4.85;;;;;;;18.12;71.88;102806.31;4964764;28;20038;-65
2022/08/07 06:53:45;;;;;;;5.00;4.43;;;;;;;18.35;71.33;102804.59;4948258;28;20030;-65
2022/08/07 06:56:11;;;;;;;6.80;4.93;;;;;;;18.39;71.14;102800.91;4948222;28;20074;-65
2022/08/07 06:58:38;;;;;;;7.05;5.13;;;;;;;18.36;70.14;102807.22;4949401;28;20035;-64
2022/08/07 07:01:06;;;;;;;5.50;4.70;;;;;;;18.48;70.09;102810.38;4949065;28;20417;-64
2022/08/07 07:03:32;;;;;;;7.68;5.07;;;;;;;18.42;70.31;102811.47;4979671;28;20023;-65
2022/08/07 07:05:57;;;;;;;7.38;5.50;;;;;;;18.56;69.54;102806.50;4967424;28;20044;-64
2022/08/07 07:08:27;;;;;;;7.00;5.68;;;;;;;18.51;68.53;102812.94;4984505;28;20117;-64
2022/08/07 07:10:53;;;;;;;5.93;5.32;;;;;;;18.60;68.28;102809.91;4977063;28;20516;-68
2022/08/07 07:13:43;;;;;;;10.07;5.18;;;;;;;18.71;68.05;102822.00;4964620;28;20409;-64
2022/08/07 07:16:19;;;;;;;7.18;4.75;;;;;;;18.89;67.13;102828.47;4962861;28;20054;-66
2022/08/07 07:18:49;;;;;;;8.55;5.60;;;;;;;18.96;66.30;102829.13;4962937;28;20446;-64
2022/08/07 07:21:19;;;;;;;6.05;5.18;;;;;;;18.94;66.36;102819.34;4961771;28;20112;-64
2022/08/07 07:23:44;;;;;;;8.45;5.90;;;;;;;18.90;66.21;102825.72;4964516;28;20105;-64
2022/08/07 07:26:13;;;;;;;5.80;5.18;;;;;;;19.05;66.51;102810.03;4965611;28;20477;-66
2022/08/07 07:28:43;;;;;;;10.15;5.30;;;;;;;19.01;66.74;102808.41;4947096;28;20031;-65
2022/08/07 07:31:15;;;;;;;8.82;5.00;;;;;;;19.06;65.69;102817.16;4945128;28;20087;-65
2022/08/07 07:33:40;;;;;;;7.07;5.00;;;;;;;19.00;65.02;102814.72;4965033;28;20039;-65
2022/08/07 07:36:07;;;;;;;6.72;5.10;;;;;;;19.00;65.16;102812.91;4947006;28;20022;-65
2022/08/07 07:38:33;;;;;;;6.03;4.50;;;;;;;19.16;65.00;102813.22;4947896;28;20066;-65
2022/08/07 07:41:02;;;;;;;7.60;5.25;;;;;;;19.22;64.81;102811.22;4965374;28;20019;-64
2022/08/07 07:43:29;;;;;;;5.18;4.38;;;;;;;19.26;64.82;102807.53;4965138;28;20042;-64
2022/08/07 07:45:54;;;;;;;6.22;5.25;;;;;;;19.16;64.99;102810.53;4949394;28;20105;-65
2022/08/07 07:48:21;;;;;;;8.13;5.32;;;;;;;19.19;65.01;102809.53;4965253;28;20050;-65
2022/08/07 07:50:49;;;;;;;6.55;4.80;;;;;;;19.39;64.37;102803.38;4964423;28;20030;-65
2022/08/07 07:53:16;;;;;;;7.13;4.05;;;;;;;19.46;63.36;102801.34;4965181;28;20050;-64
2022/08/07 07:55:41;;;;;;;5.88;3.83;;;;;;;19.37;62.99;102794.59;4984131;28;20026;-65
2022/08/07 07:58:07;;;;;;;5.50;4.15;;;;;;;19.35;63.14;102790.25;4984134;28;20026;-65
2022/08/07 08:00:32;;;;;;;6.53;4.43;;;;;;;19.57;62.98;102784.88;4939672;28;20025;-64
2022/08/07 08:03:10;;;;;;;6.57;4.53;;;;;;;19.49;63.03;102789.66;4947867;28;20034;-66
2022/08/07 08:05:37;;;;;;;5.32;4.30;;;;;;;19.43;63.04;102783.66;4930019;28;20483;-68
2022/08/07 08:08:03;;;;;;;4.85;3.55;;;;;;;19.66;62.52;102784.47;4965842;28;20034;-65
2022/08/07 08:10:29;;;;;;;6.93;4.35;;;;;;;19.79;61.64;102787.53;4947137;28;20393;-65
2022/08/07 08:12:54;;;;;;;6.60;4.80;;;;;;;19.90;60.79;102781.69;4964771;28;20509;-65
2022/08/07 08:15:20;;;;;;;4.15;3.35;;;;;;;20.01;60.21;102788.44;4948178;28;20034;-66
2022/08/07 08:17:46;;;;;;;3.50;3.15;;;;;;;20.04;60.53;102788.28;4964623;28;20469;-66
2022/08/07 08:20:13;;;;;;;4.55;3.70;;;;;;;20.10;60.02;102788.03;4946575;28;20038;-66
2022/08/07 08:28:25;;;;;;;3.78;3.20;;;;;;;20.23;57.33;102790.19;4969608;28;20053;-65
2022/08/07 08:30:58;;;;;;;4.05;2.95;;;;;;;20.26;55.84;102787.38;4973774;28;20037;-65
2022/08/07 08:33:25;;;;;;;4.30;2.75;;;;;;;20.11;54.32;102781.78;4948650;28;20054;-63
2022/08/07 08:35:54;;;;;;;3.97;2.70;;;;;;;20.28;54.93;102774.78;4950220;28;20542;-65
2022/08/07 08:38:21;;;;;;;4.65;3.25;;;;;;;20.41;55.00;102775.97;4949532;28;20046;-65
2022/08/07 08:40:54;;;;;;;4.65;3.60;;;;;;;20.52;54.63;102777.28;4950809;28;20510;-65
2022/08/07 08:43:33;;;;;;;6.18;3.47;;;;;;;20.63;54.37;102776.78;4950054;28;20267;-65
2022/08/07 08:46:17;;;;;;;8.98;3.90;;;;;;;20.62;54.62;102786.63;4949548;28;20077;-65
2022/08/07 08:48:53;;;;;;;6.07;3.38;;;;;;;20.68;54.40;102781.00;4967292;28;20466;-65
2022/08/07 08:51:31;;;;;;;7.38;4.03;;;;;;;20.67;54.83;102779.25;4950695;28;20370;-65
2022/08/07 08:54:09;;;;;;;5.55;3.92;;;;;;;20.56;55.27;102777.06;4950582;28;20039;-69
2022/08/07 08:56:40;;;;;;;5.20;3.63;;;;;;;20.66;54.53;102777.53;4967097;28;20022;-65
2022/08/07 08:59:25;;;;;;;11.50;4.05;;;;;;;20.69;55.37;102774.72;4969486;28;20285;-67
2022/08/07 09:02:09;;;;;;;6.60;3.85;;;;;;;20.62;55.26;102777.75;4968996;28;20030;-68
2022/08/07 09:04:44;;;;;;;6.47;3.75;;;;;;;20.69;52.37;102771.16;4987146;28;20038;-68
2022/08/07 09:07:17;;;;;;;5.38;4.10;;;;;;;20.69;53.33;102772.03;4964495;28;20062;-66
2022/08/07 09:10:00;;;;;;;6.32;3.72;;;;;;;20.86;53.40;102773.03;4967878;28;20035;-67
2022/08/07 09:12:34;;;;;;;5.55;3.97;;;;;;;20.98;52.76;102778.81;4965811;28;20062;-67
2022/08/07 09:15:23;;;;;;;4.97;3.70;;;;;;;20.93;52.26;102779.91;4967486;28;20093;-66
2022/08/07 09:18:01;;;;;;;6.03;3.65;;;;;;;21.00;52.35;102783.13;4948918;28;20026;-67
2022/08/07 09:20:52;;;;;;;5.38;4.15;;;;;;;20.77;52.70;102785.06;4966508;28;21062;-67
2022/08/07 09:23:50;;;;;;;5.88;3.80;;;;;;;20.95;52.12;102783.34;4965908;28;20123;-67
2022/08/07 09:26:25;;;;;;;5.28;3.80;;;;;;;21.15;51.56;102788.69;4949728;28;20441;-67
2022/08/07 09:28:53;;;;;;;8.18;3.83;;;;;;;21.23;51.28;102778.50;4953566;28;20035;-68
2022/08/07 09:31:23;;;;;;;5.13;3.28;;;;;;;21.26;50.95;102786.38;4947478;29;20027;-66
2022/08/07 09:33:56;;;;;;;6.38;3.20;;;;;;;21.06;50.80;102779.28;4968342;28;20057;-67
2022/08/07 09:36:23;;;;;;;4.70;3.15;;;;;;;21.19;50.38;102777.75;4969497;28;20473;-68
2022/08/07 09:39:26;;;;;;;3.42;3.10;;;;;;;21.32;49.37;102774.50;4984966;28;20034;-67
2022/08/07 09:42:04;;;;;;;2.90;2.70;;;;;;;21.28;49.40;102771.06;4986592;28;20038;-67
2022/08/07 09:44:52;;;;;;;4.00;3.45;;;;;;;21.34;50.26;102778.81;4966902;28;20421;-65
2022/08/07 09:47:47;;;;;;;3.50;2.83;;;;;;;21.40;50.40;102774.13;4968359;28;20030;-67
2022/08/07 09:50:21;;;;;;;4.00;3.05;;;;;;;21.53;49.59;102769.00;4934676;28;20092;-66
2022/08/07 09:53:00;;;;;;;5.80;3.50;;;;;;;21.45;48.87;102772.94;4949084;28;20073;-67
2022/08/07 09:55:31;;;;;;;8.68;3.30;;;;;;;21.58;49.80;102762.44;4947583;28;20030;-67
2022/08/07 09:58:28;;;;;;;4.55;3.00;;;;;;;21.61;49.16;102756.06;4948864;28;20007;-65
2022/08/07 10:01:08;;;;;;;3.78;2.58;;;;;;;21.70;47.74;102758.28;4974953;28;20104;-67
2022/08/07 10:03:33;;;;;;;5.35;2.47;;;;;;;21.88;47.22;102749.41;4984959;28;20085;-67
2022/08/07 10:06:16;;;;;;;3.60;3.13;;;;;;;21.66;47.16;102755.81;4975758;28;20035;-67
2022/08/07 10:09:04;;;;;;;5.93;3.10;;;;;;;21.69;46.87;102736.91;4965914;28;20301;-66
2022/08/07 10:12:07;;;;;;;3.72;2.20;;;;;;;21.73;45.19;102746.50;4964803;28;20038;-66
2022/08/07 10:14:58;;;;;;;2.55;1.75;;;;;;;21.94;43.79;102731.16;4948578;28;20129;-66
2022/08/07 10:18:24;;;;;;;3.63;1.85;;;;;;;22.08;41.61;102734.91;4947077;28;20035;-67
2022/08/07 10:21:07;;;;;;;4.35;2.00;;;;;;;22.24;41.25;102739.47;4892183;29;20534;-66
2022/08/07 10:24:08;;;;;;;3.75;1.60;;;;;;;22.25;41.27;102731.34;4905881;29;20168;-68
2022/08/07 10:26:52;;;;;;;1.60;1.50;;;;;;;22.24;41.20;102720.69;4937888;28;20528;-67
2022/08/07 10:29:59;;;;;;;2.15;1.55;;;;;;;22.24;42.41;102709.94;4964136;28;20513;-67
2022/08/07 10:32:50;;;;;;;5.20;2.10;;;;;;;22.06;42.23;102724.25;4915960;28;20065;-66
2022/08/07 10:35:27;;;;;;;4.45;2.70;;;;;;;22.10;43.33;102708.88;4949472;28;20034;-66
2022/08/07 10:37:59;;;;;;;2.70;2.00;;;;;;;22.27;43.29;102710.63;4959653;28;20109;-65
2022/08/07 10:40:34;;;;;;;4.55;1.55;;;;;;;22.64;41.63;102713.16;4947073;28;20030;-67
2022/08/07 10:43:06;;;;;;;3.80;1.83;;;;;;;22.67;44.63;102707.59;4945426;28;20031;-66
2022/08/07 10:45:45;;;;;;;4.03;1.75;;;;;;;22.75;43.03;102706.31;4947215;28;20134;-67
2022/08/07 10:48:19;;;;;;;6.68;2.30;;;;;;;22.60;43.04;102700.81;4964163;28;20065;-67
2022/08/07 10:50:52;;;;;;;5.88;2.42;;;;;;;23.04;42.79;102693.00;4946840;28;20027;-67
2022/08/07 10:53:27;;;;;;;2.05;1.85;;;;;;;23.34;42.76;102700.25;4943539;28;20106;-68
2022/08/07 10:56:09;;;;;;;3.42;1.95;;;;;;;23.45;42.25;102697.78;4946852;28;20114;-69
2022/08/07 10:59:18;;;;;;;4.07;2.15;;;;;;;23.74;40.77;102686.22;4965327;28;20840;-66
2022/08/07 11:01:53;;;;;;;3.42;2.40;;;;;;;23.82;41.83;102685.75;4947107;28;20023;-68
2022/08/07 11:04:40;;;;;;;2.58;2.38;;;;;;;23.30;41.25;102690.63;4942962;28;20026;-67
2022/08/07 11:07:22;;;;;;;8.63;2.20;;;;;;;23.09;41.14;102682.88;4963126;28;20033;-68
2022/08/07 11:09:54;;;;;;;4.07;2.67;;;;;;;23.42;42.68;102676.47;4962450;28;20536;-67
2022/08/07 11:12:33;;;;;;;2.92;2.13;;;;;;;23.77;41.69;102677.09;4941433;29;20130;-66
2022/08/07 11:15:09;;;;;;;4.85;2.38;;;;;;;24.18;41.07;102678.22;4942905;28;20106;-66
2022/08/07 11:17:42;;;;;;;6.07;2.35;;;;;;;24.06;42.18;102674.44;4944229;29;20023;-67
2022/08/07 11:20:18;;;;;;;7.35;2.67;;;;;;;24.24;43.63;102669.75;4967379;28;20030;-67
2022/08/07 11:23:02;;;;;;;3.60;2.25;;;;;;;24.18;42.79;102668.31;4963358;28;20084;-66
2022/08/07 11:25:35;;;;;;;2.53;2.10;;;;;;;24.52;40.14;102664.38;4963772;28;20405;-67
2022/08/07 11:28:13;;;;;;;3.30;2.80;;;;;;;24.46;43.88;102660.28;4958936;28;20035;-66
2022/08/07 11:30:47;;;;;;;3.47;2.22;;;;;;;24.90;40.43;102658.34;4944616;28;20051;-66
2022/08/07 11:33:22;;;;;;;3.15;2.00;;;;;;;25.11;39.92;102656.03;4944588;29;20035;-68
2022/08/07 11:36:08;;;;;;;5.38;2.13;;;;;;;25.16;39.96;102671.03;4943919;28;20034;-67
2022/08/07 11:38:51;;;;;;;4.93;2.72;;;;;;;24.94;40.66;102654.47;4944073;28;20019;-66
2022/08/07 11:41:23;;;;;;;4.88;2.20;;;;;;;25.02;41.83;102651.28;4944224;28;20033;-67
2022/08/07 11:43:57;;;;;;;4.53;2.30;;;;;;;25.09;43.70;102651.72;4944508;28;20058;-67